Cataratas del Iguazú, Argentina

12:28 AM ART en Octubre 25, 2014 (GMT -0300)
Mayor D Carlos Eduardo Krause | Change Station
CLOSE
Current Station
Aeropuerto
Location: Iguazu,
Altura: 886 ft
Estaciones meteorológicas cercanas

Alt 886 ft 25.74 °S, 54.47 °W | Updated 28 minutes ago

Clear
Despejado
70 ° F
Sensación térmica 70 ° F
N
0
Viento Variable Viento desde Norte

Hoy
Alta -- | Baja -- ° F
--% Posibilidad de precipitaciones
Ayer
Alta -- | Baja -- ° F
Precip. -- pul
5:54 AM 6:49 PM
Luna nueva, 2% visible
Presión 29.92 pul
Visibilidad -9999.0 Millas
Nubes
Punto de rocío 68 ° F
Humedad 94%
Precipitaciones 0.00 pul
Espesor de la nieve No disponible.
UV No disponible.
Polen No disponible.
Calidad del aire No disponible.
Flu Activity No disponible.
METAR SARI 250300Z 00000KT CAVOK 21/20 Q1013

More Conditions Fewer Conditions

Presión 29.92 pul
Visibilidad -9999.0 Millas
Nubes
Punto de rocío 68 ° F
Humedad 94%
Precipitaciones 0.00 pul
Espesor de la nieve No disponible.
UV No disponible.
Polen No disponible.
Calidad del aire No disponible.
Flu Activity No disponible.
METAR SARI 250300Z 00000KT CAVOK 21/20 Q1013

More Conditions Fewer Conditions

10-Day Weather Forecast

Almanac

Astronomía

Oct. 25, 2014 Salida Puesta
Hora real 5:54 AM ART 6:49 PM ART
Crepúsculo civil 5:30 AM ART 7:13 PM ART
Crepúsculo náutico 5:02 AM ART 7:41 PM ART
Crepúsculo astronómico 4:33 AM ART 8:10 PM ART
Luna 7:06 AM ART 8:35 PM ART
Horas de luz 13h 43m
Horas de luz
12h 55m
Tomorrow will be 1m 25s longer.
Luna nueva, 2% of the Moon is Illuminated
Oct 24
Luna nueva
Oct 30
Cuarto creciente
Nov 6
Luna llena
Nov 14
Cuarto menguante
Nov 22
Nueva

Extremos de ayer

Máximos del país Bajas del país

Community

WunderPhotos

Upload Photos

1,764,769 ¡fotos cargadas!

Nearby

Calidad del aire

Not available.

Grosos de nieve

Not available.

Actividad de terremotos

Ciudad Distance Mag. Tiempo y dato
No hay informes recientes de la actividad sísmica.
Magnitud mínima muestra es 2,5.

Temperaturas de aguas costeras

Lugar Temperatura
Sin partes meteorológicos de las estaciones

Estaciones meteorológicas cercanas